Cidra, PR (00739)

1:49 PM AST on September 16, 2014 (GMT -0400)
Cayey | Change Station
CLOSE
Current Station
Personal Weather Station
Location: Cayey, PR
Elevation: 1299 ft
Nearby Weather Stations

Elev 1299 ft 18.12 °N, 66.16 °W | Updated 6 seconds ago

Scattered Clouds
Scattered Clouds
84.0 °F
Feels Like 88 °F
N
6.0
Wind Variable Wind from SE
Gusts 9.0 mph

Today
High -- | Low -- °F
--% Chance of Precip.
Yesterday
High -- | Low -- °F
Precip. -- in
6:12 AM 6:26 PM
Last Quarter, 44% visible
Pressure 29.97 in
Visibility 10.0 miles
Clouds Few 3200 ft
Scattered Clouds 13000 ft
Heat Index 88 °F
Dew Point 69 °F
Humidity 61%
Rainfall 0.00 in
Snow Depth Not available.
UV 9 out of 12
Pollen Not available.
Air Quality Not available.
Flu Activity Not available.
METAR TJSJ 161656Z 05014KT 10SM FEW032 SCT130 31/24 A2997 RMK AO2 SLP148 T03110239

More Conditions Fewer Conditions

Pressure 29.97 in
Visibility 10.0 miles
Clouds Few 3200 ft
Scattered Clouds 13000 ft
Heat Index 88 °F
Dew Point 69 °F
Humidity 61%
Rainfall 0.00 in
Snow Depth Not available.
UV 9 out of 12
Pollen Not available.
Air Quality Not available.
Flu Activity Not available.
METAR TJSJ 161656Z 05014KT 10SM FEW032 SCT130 31/24 A2997 RMK AO2 SLP148 T03110239

More Conditions Fewer Conditions

10-Day Weather Forecast

Almanac

Astronomy

Sep. 16, 2014 Rise Set
Actual Time 6:12 AM AST 6:26 PM AST
Civil Twilight 5:50 AM AST 6:47 PM AST
Nautical Twilight 5:25 AM AST 7:13 PM AST
Astronomical Twilight 4:59 AM AST 7:38 PM AST
Moon No Moon Rise 1:10 PM AST
Length of Visible Light 12h 56m
Length of Day
12h 13m
Tomorrow will be 1m 1s shorter.
Last Quarter, 44% of the Moon is Illuminated
Today
Last Quarter
Sep 24
New
Oct 1
First Quarter
Oct 8
Full
Oct 15
Last Quarter

Community

WunderPhotos

Upload Photos

1,753,843 photos uploaded!

Nearby

Snow Depth

Station Depth Elevation
No new snow has been reported.

Earthquake Activity

City Distance Mag. Time & Date
No recent earthquake activity has been reported nearby.
Minimum magnitude displayed is 2.5.

Coastal Water Temperatures

Place Temperature
Magueyes Islands, PR 84.9 °F
Yabucoa Harbor, PR 84.0 °F

Nearby Weather Stations